sensor_id;sensor_type;location;lat;lon;timestamp;P1;durP1;ratioP1;P2;durP2;ratioP2
20290;SDS011;10304;51.074;13.754;2023-05-10T00:00:20;3.38;;;2.22;;
20290;SDS011;10304;51.074;13.754;2023-05-10T00:02:48;2.10;;;1.90;;
20290;SDS011;10304;51.074;13.754;2023-05-10T00:05:16;2.95;;;2.15;;
20290;SDS011;10304;51.074;13.754;2023-05-10T00:07:43;3.53;;;1.98;;
20290;SDS011;10304;51.074;13.754;2023-05-10T00:10:11;2.25;;;1.92;;
20290;SDS011;10304;51.074;13.754;2023-05-10T00:12:38;3.38;;;2.10;;
20290;SDS011;10304;51.074;13.754;2023-05-10T00:15:05;2.20;;;2.00;;
20290;SDS011;10304;51.074;13.754;2023-05-10T00:17:34;2.45;;;2.15;;
20290;SDS011;10304;51.074;13.754;2023-05-10T00:20:01;3.35;;;2.10;;
20290;SDS011;10304;51.074;13.754;2023-05-10T00:22:28;2.83;;;1.90;;
20290;SDS011;10304;51.074;13.754;2023-05-10T00:24:55;6.10;;;2.05;;
20290;SDS011;10304;51.074;13.754;2023-05-10T00:27:22;3.28;;;2.10;;
20290;SDS011;10304;51.074;13.754;2023-05-10T00:29:49;3.55;;;2.00;;
20290;SDS011;10304;51.074;13.754;2023-05-10T00:32:16;2.53;;;1.92;;
20290;SDS011;10304;51.074;13.754;2023-05-10T00:34:43;2.45;;;1.85;;
20290;SDS011;10304;51.074;13.754;2023-05-10T00:37:10;2.40;;;2.00;;
20290;SDS011;10304;51.074;13.754;2023-05-10T00:39:37;7.82;;;1.95;;
20290;SDS011;10304;51.074;13.754;2023-05-10T00:42:04;3.03;;;2.00;;
20290;SDS011;10304;51.074;13.754;2023-05-10T00:44:30;3.40;;;1.95;;
20290;SDS011;10304;51.074;13.754;2023-05-10T00:46:57;5.13;;;1.98;;
20290;SDS011;10304;51.074;13.754;2023-05-10T00:49:25;3.33;;;1.90;;
20290;SDS011;10304;51.074;13.754;2023-05-10T00:51:52;3.33;;;2.10;;
20290;SDS011;10304;51.074;13.754;2023-05-10T00:54:19;4.15;;;1.98;;
20290;SDS011;10304;51.074;13.754;2023-05-10T00:56:46;3.53;;;2.00;;
20290;SDS011;10304;51.074;13.754;2023-05-10T00:59:15;3.38;;;1.92;;
20290;SDS011;10304;51.074;13.754;2023-05-10T01:01:44;4.40;;;1.92;;
20290;SDS011;10304;51.074;13.754;2023-05-10T01:04:12;4.82;;;1.77;;
20290;SDS011;10304;51.074;13.754;2023-05-10T01:06:40;2.13;;;1.63;;
20290;SDS011;10304;51.074;13.754;2023-05-10T01:09:07;2.55;;;2.00;;
20290;SDS011;10304;51.074;13.754;2023-05-10T01:11:35;2.40;;;1.92;;
20290;SDS011;10304;51.074;13.754;2023-05-10T01:14:03;2.33;;;1.90;;
20290;SDS011;10304;51.074;13.754;2023-05-10T01:16:33;2.50;;;1.67;;
20290;SDS011;10304;51.074;13.754;2023-05-10T01:19:18;2.95;;;1.63;;
20290;SDS011;10304;51.074;13.754;2023-05-10T01:21:49;2.45;;;1.70;;
20290;SDS011;10304;51.074;13.754;2023-05-10T01:35:47;9.15;;;1.95;;
20290;SDS011;10304;51.074;13.754;2023-05-10T01:41:35;3.45;;;1.70;;
20290;SDS011;10304;51.074;13.754;2023-05-10T01:46:53;3.08;;;1.80;;
20290;SDS011;10304;51.074;13.754;2023-05-10T01:49:45;3.53;;;2.05;;
20290;SDS011;10304;51.074;13.754;2023-05-10T01:52:16;3.92;;;1.77;;
20290;SDS011;10304;51.074;13.754;2023-05-10T01:54:55;3.53;;;2.00;;
20290;SDS011;10304;51.074;13.754;2023-05-10T01:57:32;3.83;;;1.73;;
20290;SDS011;10304;51.074;13.754;2023-05-10T02:00:01;4.25;;;2.17;;
20290;SDS011;10304;51.074;13.754;2023-05-10T02:02:30;3.22;;;1.60;;
20290;SDS011;10304;51.074;13.754;2023-05-10T02:05:05;2.75;;;1.65;;
20290;SDS011;10304;51.074;13.754;2023-05-10T02:07:34;4.22;;;1.67;;
20290;SDS011;10304;51.074;13.754;2023-05-10T02:10:06;3.08;;;1.60;;
20290;SDS011;10304;51.074;13.754;2023-05-10T02:12:35;2.28;;;1.85;;
20290;SDS011;10304;51.074;13.754;2023-05-10T02:15:05;4.30;;;1.80;;
20290;SDS011;10304;51.074;13.754;2023-05-10T02:17:34;1.90;;;1.67;;
20290;SDS011;10304;51.074;13.754;2023-05-10T02:20:03;2.28;;;1.88;;
20290;SDS011;10304;51.074;13.754;2023-05-10T02:22:32;6.63;;;2.08;;
20290;SDS011;10304;51.074;13.754;2023-05-10T02:25:01;4.13;;;2.30;;
20290;SDS011;10304;51.074;13.754;2023-05-10T02:27:30;2.38;;;1.52;;
20290;SDS011;10304;51.074;13.754;2023-05-10T02:29:57;3.65;;;1.95;;
20290;SDS011;10304;51.074;13.754;2023-05-10T02:32:25;2.97;;;1.83;;
20290;SDS011;10304;51.074;13.754;2023-05-10T02:34:54;2.97;;;2.08;;
20290;SDS011;10304;51.074;13.754;2023-05-10T02:37:22;3.38;;;1.80;;
20290;SDS011;10304;51.074;13.754;2023-05-10T02:39:50;3.42;;;1.95;;
20290;SDS011;10304;51.074;13.754;2023-05-10T02:42:21;2.53;;;1.90;;
20290;SDS011;10304;51.074;13.754;2023-05-10T02:44:52;2.30;;;2.00;;
20290;SDS011;10304;51.074;13.754;2023-05-10T02:47:21;3.80;;;1.90;;
20290;SDS011;10304;51.074;13.754;2023-05-10T02:49:48;4.50;;;1.92;;
20290;SDS011;10304;51.074;13.754;2023-05-10T02:52:16;2.92;;;1.95;;
20290;SDS011;10304;51.074;13.754;2023-05-10T02:54:49;1.98;;;1.77;;
20290;SDS011;10304;51.074;13.754;2023-05-10T02:57:22;3.50;;;1.98;;
20290;SDS011;10304;51.074;13.754;2023-05-10T02:59:56;3.17;;;1.55;;
20290;SDS011;10304;51.074;13.754;2023-05-10T03:02:23;3.42;;;1.85;;
20290;SDS011;10304;51.074;13.754;2023-05-10T03:04:50;2.60;;;1.85;;
20290;SDS011;10304;51.074;13.754;2023-05-10T03:07:17;4.28;;;1.60;;
20290;SDS011;10304;51.074;13.754;2023-05-10T03:09:50;5.00;;;2.10;;
20290;SDS011;10304;51.074;13.754;2023-05-10T03:18:22;1.92;;;1.63;;
20290;SDS011;10304;51.074;13.754;2023-05-10T03:20:59;3.45;;;1.95;;
20290;SDS011;10304;51.074;13.754;2023-05-10T03:26:26;2.42;;;1.85;;
20290;SDS011;10304;51.074;13.754;2023-05-10T03:28:53;3.38;;;2.13;;
20290;SDS011;10304;51.074;13.754;2023-05-10T03:31:21;2.25;;;1.92;;
20290;SDS011;10304;51.074;13.754;2023-05-10T03:33:49;4.75;;;1.90;;
20290;SDS011;10304;51.074;13.754;2023-05-10T03:36:17;2.92;;;1.92;;
20290;SDS011;10304;51.074;13.754;2023-05-10T03:38:44;3.30;;;2.00;;
20290;SDS011;10304;51.074;13.754;2023-05-10T03:41:11;2.47;;;1.77;;
20290;SDS011;10304;51.074;13.754;2023-05-10T03:43:39;3.55;;;2.03;;
20290;SDS011;10304;51.074;13.754;2023-05-10T03:46:06;3.00;;;1.95;;
20290;SDS011;10304;51.074;13.754;2023-05-10T03:48:32;2.40;;;1.95;;
20290;SDS011;10304;51.074;13.754;2023-05-10T03:50:59;4.18;;;1.80;;
20290;SDS011;10304;51.074;13.754;2023-05-10T03:53:26;2.90;;;1.90;;
20290;SDS011;10304;51.074;13.754;2023-05-10T03:55:53;3.60;;;1.90;;
20290;SDS011;10304;51.074;13.754;2023-05-10T03:58:19;4.43;;;1.90;;
20290;SDS011;10304;51.074;13.754;2023-05-10T04:00:46;3.90;;;2.33;;
20290;SDS011;10304;51.074;13.754;2023-05-10T04:03:13;3.40;;;2.25;;
20290;SDS011;10304;51.074;13.754;2023-05-10T04:05:40;5.45;;;2.10;;
20290;SDS011;10304;51.074;13.754;2023-05-10T04:08:07;5.72;;;2.30;;
20290;SDS011;10304;51.074;13.754;2023-05-10T04:10:34;5.00;;;2.35;;
20290;SDS011;10304;51.074;13.754;2023-05-10T04:13:00;5.82;;;1.77;;
20290;SDS011;10304;51.074;13.754;2023-05-10T04:15:27;4.78;;;2.25;;
20290;SDS011;10304;51.074;13.754;2023-05-10T04:17:54;3.03;;;2.00;;
20290;SDS011;10304;51.074;13.754;2023-05-10T04:20:21;3.40;;;1.83;;
20290;SDS011;10304;51.074;13.754;2023-05-10T04:22:48;4.55;;;1.92;;
20290;SDS011;10304;51.074;13.754;2023-05-10T04:25:15;3.22;;;1.92;;
20290;SDS011;10304;51.074;13.754;2023-05-10T04:27:42;2.72;;;2.05;;
20290;SDS011;10304;51.074;13.754;2023-05-10T04:30:09;6.63;;;2.20;;
20290;SDS011;10304;51.074;13.754;2023-05-10T04:32:36;2.38;;;1.73;;
20290;SDS011;10304;51.074;13.754;2023-05-10T04:35:03;3.30;;;2.00;;
20290;SDS011;10304;51.074;13.754;2023-05-10T04:37:30;4.85;;;1.90;;
20290;SDS011;10304;51.074;13.754;2023-05-10T04:39:57;2.28;;;1.90;;
20290;SDS011;10304;51.074;13.754;2023-05-10T04:42:26;3.85;;;2.40;;
20290;SDS011;10304;51.074;13.754;2023-05-10T04:44:52;2.90;;;2.10;;
20290;SDS011;10304;51.074;13.754;2023-05-10T04:47:19;2.25;;;1.90;;
20290;SDS011;10304;51.074;13.754;2023-05-10T04:49:46;2.42;;;1.70;;
20290;SDS011;10304;51.074;13.754;2023-05-10T04:52:13;3.58;;;1.70;;
20290;SDS011;10304;51.074;13.754;2023-05-10T04:54:41;3.35;;;1.77;;
20290;SDS011;10304;51.074;13.754;2023-05-10T04:57:08;2.00;;;1.80;;
20290;SDS011;10304;51.074;13.754;2023-05-10T04:59:35;2.83;;;2.00;;
20290;SDS011;10304;51.074;13.754;2023-05-10T05:02:03;3.35;;;1.73;;
20290;SDS011;10304;51.074;13.754;2023-05-10T05:04:31;2.03;;;1.70;;
20290;SDS011;10304;51.074;13.754;2023-05-10T05:06:58;3.88;;;1.90;;
20290;SDS011;10304;51.074;13.754;2023-05-10T05:09:25;3.65;;;2.17;;
20290;SDS011;10304;51.074;13.754;2023-05-10T05:11:51;4.47;;;2.55;;
20290;SDS011;10304;51.074;13.754;2023-05-10T05:14:18;3.67;;;2.00;;
20290;SDS011;10304;51.074;13.754;2023-05-10T05:16:47;3.15;;;1.95;;
20290;SDS011;10304;51.074;13.754;2023-05-10T05:19:14;3.90;;;1.90;;
20290;SDS011;10304;51.074;13.754;2023-05-10T05:21:40;2.70;;;1.80;;
20290;SDS011;10304;51.074;13.754;2023-05-10T05:24:07;4.63;;;1.73;;
20290;SDS011;10304;51.074;13.754;2023-05-10T05:26:34;3.13;;;1.48;;
20290;SDS011;10304;51.074;13.754;2023-05-10T05:29:01;4.95;;;2.00;;
20290;SDS011;10304;51.074;13.754;2023-05-10T05:31:28;5.28;;;1.92;;
20290;SDS011;10304;51.074;13.754;2023-05-10T05:33:55;3.42;;;1.90;;
20290;SDS011;10304;51.074;13.754;2023-05-10T05:36:22;6.28;;;3.28;;
20290;SDS011;10304;51.074;13.754;2023-05-10T05:38:49;3.88;;;1.80;;
20290;SDS011;10304;51.074;13.754;2023-05-10T05:41:16;4.40;;;2.22;;
20290;SDS011;10304;51.074;13.754;2023-05-10T05:43:43;8.90;;;3.88;;
20290;SDS011;10304;51.074;13.754;2023-05-10T05:46:10;5.63;;;3.05;;
20290;SDS011;10304;51.074;13.754;2023-05-10T05:48:37;7.50;;;2.95;;
20290;SDS011;10304;51.074;13.754;2023-05-10T05:51:04;4.88;;;2.22;;
20290;SDS011;10304;51.074;13.754;2023-05-10T05:53:32;3.88;;;2.38;;
20290;SDS011;10304;51.074;13.754;2023-05-10T05:55:59;4.30;;;2.03;;
20290;SDS011;10304;51.074;13.754;2023-05-10T05:58:26;6.05;;;1.90;;
20290;SDS011;10304;51.074;13.754;2023-05-10T06:00:53;3.42;;;2.00;;
20290;SDS011;10304;51.074;13.754;2023-05-10T06:03:20;2.88;;;2.10;;
20290;SDS011;10304;51.074;13.754;2023-05-10T06:05:47;3.33;;;1.80;;
20290;SDS011;10304;51.074;13.754;2023-05-10T06:08:14;2.22;;;1.77;;
20290;SDS011;10304;51.074;13.754;2023-05-10T06:10:41;5.18;;;2.30;;
20290;SDS011;10304;51.074;13.754;2023-05-10T06:13:08;3.55;;;1.92;;
20290;SDS011;10304;51.074;13.754;2023-05-10T06:15:35;4.57;;;2.08;;
20290;SDS011;10304;51.074;13.754;2023-05-10T06:18:03;3.15;;;2.20;;
20290;SDS011;10304;51.074;13.754;2023-05-10T06:20:30;2.85;;;1.70;;
20290;SDS011;10304;51.074;13.754;2023-05-10T06:22:57;3.80;;;2.08;;
20290;SDS011;10304;51.074;13.754;2023-05-10T06:25:24;4.55;;;1.98;;
20290;SDS011;10304;51.074;13.754;2023-05-10T06:27:51;2.78;;;2.15;;
20290;SDS011;10304;51.074;13.754;2023-05-10T06:30:23;3.95;;;1.75;;
20290;SDS011;10304;51.074;13.754;2023-05-10T06:32:54;3.35;;;2.30;;
20290;SDS011;10304;51.074;13.754;2023-05-10T06:35:21;6.32;;;2.28;;
20290;SDS011;10304;51.074;13.754;2023-05-10T06:37:49;5.72;;;2.17;;
20290;SDS011;10304;51.074;13.754;2023-05-10T06:40:16;2.30;;;1.95;;
20290;SDS011;10304;51.074;13.754;2023-05-10T06:42:43;5.60;;;2.20;;
20290;SDS011;10304;51.074;13.754;2023-05-10T06:45:11;5.57;;;2.40;;
20290;SDS011;10304;51.074;13.754;2023-05-10T06:47:38;4.68;;;2.78;;
20290;SDS011;10304;51.074;13.754;2023-05-10T06:50:06;5.90;;;2.13;;
20290;SDS011;10304;51.074;13.754;2023-05-10T06:52:33;5.43;;;2.55;;
20290;SDS011;10304;51.074;13.754;2023-05-10T06:55:01;4.35;;;2.40;;
20290;SDS011;10304;51.074;13.754;2023-05-10T06:57:28;7.82;;;2.97;;
20290;SDS011;10304;51.074;13.754;2023-05-10T06:59:57;3.38;;;2.15;;
20290;SDS011;10304;51.074;13.754;2023-05-10T07:02:25;5.03;;;2.28;;
20290;SDS011;10304;51.074;13.754;2023-05-10T07:04:52;5.75;;;2.20;;
20290;SDS011;10304;51.074;13.754;2023-05-10T07:07:19;2.67;;;2.03;;
20290;SDS011;10304;51.074;13.754;2023-05-10T07:09:46;3.00;;;2.20;;
20290;SDS011;10304;51.074;13.754;2023-05-10T07:12:13;6.00;;;2.45;;
20290;SDS011;10304;51.074;13.754;2023-05-10T07:14:41;3.53;;;2.60;;
20290;SDS011;10304;51.074;13.754;2023-05-10T07:17:08;5.07;;;2.20;;
20290;SDS011;10304;51.074;13.754;2023-05-10T07:19:36;6.90;;;2.65;;
20290;SDS011;10304;51.074;13.754;2023-05-10T07:22:02;5.25;;;2.30;;
20290;SDS011;10304;51.074;13.754;2023-05-10T07:24:29;6.15;;;2.13;;
20290;SDS011;10304;51.074;13.754;2023-05-10T07:26:57;3.58;;;2.22;;
20290;SDS011;10304;51.074;13.754;2023-05-10T07:29:24;2.58;;;2.20;;
20290;SDS011;10304;51.074;13.754;2023-05-10T07:31:51;3.88;;;2.08;;
20290;SDS011;10304;51.074;13.754;2023-05-10T07:34:18;4.97;;;2.55;;
20290;SDS011;10304;51.074;13.754;2023-05-10T07:36:44;4.53;;;2.00;;
20290;SDS011;10304;51.074;13.754;2023-05-10T07:39:11;5.63;;;2.55;;
20290;SDS011;10304;51.074;13.754;2023-05-10T07:41:51;4.53;;;2.60;;
20290;SDS011;10304;51.074;13.754;2023-05-10T07:44:18;4.93;;;2.50;;
20290;SDS011;10304;51.074;13.754;2023-05-10T07:46:46;5.07;;;2.80;;
20290;SDS011;10304;51.074;13.754;2023-05-10T07:49:14;5.53;;;2.50;;
20290;SDS011;10304;51.074;13.754;2023-05-10T07:51:41;4.40;;;2.60;;
20290;SDS011;10304;51.074;13.754;2023-05-10T07:54:08;3.40;;;2.42;;
20290;SDS011;10304;51.074;13.754;2023-05-10T07:56:35;4.50;;;2.65;;
20290;SDS011;10304;51.074;13.754;2023-05-10T07:59:02;4.78;;;2.55;;
20290;SDS011;10304;51.074;13.754;2023-05-10T08:01:31;5.43;;;2.60;;
20290;SDS011;10304;51.074;13.754;2023-05-10T08:03:59;3.28;;;2.63;;
20290;SDS011;10304;51.074;13.754;2023-05-10T08:06:26;4.90;;;2.63;;
20290;SDS011;10304;51.074;13.754;2023-05-10T08:08:55;4.43;;;2.45;;
20290;SDS011;10304;51.074;13.754;2023-05-10T08:11:22;3.38;;;2.47;;
20290;SDS011;10304;51.074;13.754;2023-05-10T08:13:50;6.22;;;2.97;;
20290;SDS011;10304;51.074;13.754;2023-05-10T08:16:17;4.28;;;2.60;;
20290;SDS011;10304;51.074;13.754;2023-05-10T08:18:44;4.18;;;2.70;;
20290;SDS011;10304;51.074;13.754;2023-05-10T08:21:13;4.93;;;2.58;;
20290;SDS011;10304;51.074;13.754;2023-05-10T08:23:40;3.05;;;2.45;;
20290;SDS011;10304;51.074;13.754;2023-05-10T08:26:07;6.60;;;2.70;;
20290;SDS011;10304;51.074;13.754;2023-05-10T08:28:34;5.00;;;2.75;;
20290;SDS011;10304;51.074;13.754;2023-05-10T08:31:00;7.70;;;2.67;;
20290;SDS011;10304;51.074;13.754;2023-05-10T08:33:27;5.07;;;2.80;;
20290;SDS011;10304;51.074;13.754;2023-05-10T08:35:54;3.47;;;2.67;;
20290;SDS011;10304;51.074;13.754;2023-05-10T08:38:21;5.75;;;2.80;;
20290;SDS011;10304;51.074;13.754;2023-05-10T08:40:48;5.80;;;2.40;;
20290;SDS011;10304;51.074;13.754;2023-05-10T08:43:17;6.93;;;2.72;;
20290;SDS011;10304;51.074;13.754;2023-05-10T08:45:44;4.38;;;2.70;;
20290;SDS011;10304;51.074;13.754;2023-05-10T08:48:13;4.53;;;2.80;;
20290;SDS011;10304;51.074;13.754;2023-05-10T08:50:41;6.82;;;3.13;;
20290;SDS011;10304;51.074;13.754;2023-05-10T08:53:10;3.45;;;2.67;;
20290;SDS011;10304;51.074;13.754;2023-05-10T08:55:38;5.47;;;3.00;;
20290;SDS011;10304;51.074;13.754;2023-05-10T08:58:06;3.55;;;2.83;;
20290;SDS011;10304;51.074;13.754;2023-05-10T09:00:33;6.57;;;2.72;;
20290;SDS011;10304;51.074;13.754;2023-05-10T09:03:02;11.07;;;2.75;;
20290;SDS011;10304;51.074;13.754;2023-05-10T09:05:30;4.97;;;3.10;;
20290;SDS011;10304;51.074;13.754;2023-05-10T09:07:57;4.72;;;2.90;;
20290;SDS011;10304;51.074;13.754;2023-05-10T09:10:26;3.90;;;3.10;;
20290;SDS011;10304;51.074;13.754;2023-05-10T09:12:55;4.38;;;2.95;;
20290;SDS011;10304;51.074;13.754;2023-05-10T09:15:24;5.65;;;3.10;;
20290;SDS011;10304;51.074;13.754;2023-05-10T09:17:52;6.20;;;3.00;;
20290;SDS011;10304;51.074;13.754;2023-05-10T09:20:19;5.63;;;2.70;;
20290;SDS011;10304;51.074;13.754;2023-05-10T09:22:46;5.43;;;2.90;;
20290;SDS011;10304;51.074;13.754;2023-05-10T09:25:14;3.58;;;2.92;;
20290;SDS011;10304;51.074;13.754;2023-05-10T09:27:46;5.63;;;2.65;;
20290;SDS011;10304;51.074;13.754;2023-05-10T09:30:17;5.22;;;3.05;;
20290;SDS011;10304;51.074;13.754;2023-05-10T09:32:53;7.85;;;3.17;;
20290;SDS011;10304;51.074;13.754;2023-05-10T09:35:21;6.65;;;2.92;;
20290;SDS011;10304;51.074;13.754;2023-05-10T09:37:52;5.50;;;2.90;;
20290;SDS011;10304;51.074;13.754;2023-05-10T09:40:21;3.78;;;3.03;;
20290;SDS011;10304;51.074;13.754;2023-05-10T09:42:51;3.50;;;3.00;;
20290;SDS011;10304;51.074;13.754;2023-05-10T09:45:33;6.13;;;2.70;;
20290;SDS011;10304;51.074;13.754;2023-05-10T09:48:04;5.38;;;2.83;;
20290;SDS011;10304;51.074;13.754;2023-05-10T09:50:31;4.47;;;2.97;;
20290;SDS011;10304;51.074;13.754;2023-05-10T09:52:58;6.75;;;3.15;;
20290;SDS011;10304;51.074;13.754;2023-05-10T09:58:07;4.22;;;3.45;;
20290;SDS011;10304;51.074;13.754;2023-05-10T10:00:37;7.97;;;5.97;;
20290;SDS011;10304;51.074;13.754;2023-05-10T10:03:12;5.03;;;3.63;;
20290;SDS011;10304;51.074;13.754;2023-05-10T10:05:41;5.35;;;3.22;;
20290;SDS011;10304;51.074;13.754;2023-05-10T10:08:09;4.07;;;3.22;;
20290;SDS011;10304;51.074;13.754;2023-05-10T10:10:38;12.65;;;7.40;;
20290;SDS011;10304;51.074;13.754;2023-05-10T10:13:06;7.05;;;3.60;;
20290;SDS011;10304;51.074;13.754;2023-05-10T10:15:34;4.25;;;3.40;;
20290;SDS011;10304;51.074;13.754;2023-05-10T10:18:01;5.75;;;3.15;;
20290;SDS011;10304;51.074;13.754;2023-05-10T10:20:30;15.45;;;7.65;;
20290;SDS011;10304;51.074;13.754;2023-05-10T10:22:57;3.83;;;3.38;;
20290;SDS011;10304;51.074;13.754;2023-05-10T10:25:23;7.38;;;3.33;;
20290;SDS011;10304;51.074;13.754;2023-05-10T10:36:06;5.72;;;3.42;;
20290;SDS011;10304;51.074;13.754;2023-05-10T10:41:28;3.67;;;3.30;;
20290;SDS011;10304;51.074;13.754;2023-05-10T10:50:02;4.25;;;3.72;;
20290;SDS011;10304;51.074;13.754;2023-05-10T10:52:30;5.78;;;3.17;;
20290;SDS011;10304;51.074;13.754;2023-05-10T10:55:02;6.38;;;3.53;;
20290;SDS011;10304;51.074;13.754;2023-05-10T10:57:32;4.40;;;3.25;;
20290;SDS011;10304;51.074;13.754;2023-05-10T11:00:27;4.43;;;3.40;;
20290;SDS011;10304;51.074;13.754;2023-05-10T11:03:04;4.30;;;3.47;;
20290;SDS011;10304;51.074;13.754;2023-05-10T11:08:14;7.03;;;3.58;;
20290;SDS011;10304;51.074;13.754;2023-05-10T11:11:03;7.93;;;3.33;;
20290;SDS011;10304;51.074;13.754;2023-05-10T11:13:46;6.05;;;3.13;;
20290;SDS011;10304;51.074;13.754;2023-05-10T11:16:20;5.70;;;3.42;;
20290;SDS011;10304;51.074;13.754;2023-05-10T11:19:07;5.53;;;3.50;;
20290;SDS011;10304;51.074;13.754;2023-05-10T11:24:13;3.83;;;3.42;;
20290;SDS011;10304;51.074;13.754;2023-05-10T11:26:59;4.10;;;3.53;;
20290;SDS011;10304;51.074;13.754;2023-05-10T11:29:27;4.07;;;3.35;;
20290;SDS011;10304;51.074;13.754;2023-05-10T11:31:56;5.43;;;3.60;;
20290;SDS011;10304;51.074;13.754;2023-05-10T11:34:30;4.25;;;3.67;;
20290;SDS011;10304;51.074;13.754;2023-05-10T11:37:00;6.00;;;3.92;;
20290;SDS011;10304;51.074;13.754;2023-05-10T11:39:27;4.93;;;3.60;;
20290;SDS011;10304;51.074;13.754;2023-05-10T11:41:55;4.65;;;3.38;;
20290;SDS011;10304;51.074;13.754;2023-05-10T11:44:23;5.45;;;3.80;;
20290;SDS011;10304;51.074;13.754;2023-05-10T11:46:57;4.55;;;3.65;;
20290;SDS011;10304;51.074;13.754;2023-05-10T11:49:27;3.83;;;3.33;;
20290;SDS011;10304;51.074;13.754;2023-05-10T11:52:07;5.95;;;3.53;;
20290;SDS011;10304;51.074;13.754;2023-05-10T11:54:34;7.28;;;3.63;;
20290;SDS011;10304;51.074;13.754;2023-05-10T11:57:02;5.13;;;3.55;;
20290;SDS011;10304;51.074;13.754;2023-05-10T11:59:29;5.75;;;3.78;;
20290;SDS011;10304;51.074;13.754;2023-05-10T12:01:56;3.60;;;3.30;;
20290;SDS011;10304;51.074;13.754;2023-05-10T12:04:23;6.65;;;4.07;;
20290;SDS011;10304;51.074;13.754;2023-05-10T12:06:50;5.55;;;3.65;;
20290;SDS011;10304;51.074;13.754;2023-05-10T12:09:17;6.50;;;3.75;;
20290;SDS011;10304;51.074;13.754;2023-05-10T12:11:56;5.50;;;3.63;;
20290;SDS011;10304;51.074;13.754;2023-05-10T12:14:23;7.93;;;3.45;;
20290;SDS011;10304;51.074;13.754;2023-05-10T12:16:50;7.18;;;3.45;;
20290;SDS011;10304;51.074;13.754;2023-05-10T12:19:18;5.70;;;3.50;;
20290;SDS011;10304;51.074;13.754;2023-05-10T12:21:46;6.60;;;3.70;;
20290;SDS011;10304;51.074;13.754;2023-05-10T12:24:13;3.67;;;3.33;;
20290;SDS011;10304;51.074;13.754;2023-05-10T12:26:44;6.78;;;3.80;;
20290;SDS011;10304;51.074;13.754;2023-05-10T12:29:15;11.90;;;4.55;;
20290;SDS011;10304;51.074;13.754;2023-05-10T12:31:50;7.03;;;3.72;;
20290;SDS011;10304;51.074;13.754;2023-05-10T12:34:38;3.90;;;3.30;;
20290;SDS011;10304;51.074;13.754;2023-05-10T12:37:04;6.43;;;3.80;;
20290;SDS011;10304;51.074;13.754;2023-05-10T12:39:41;4.32;;;3.70;;
20290;SDS011;10304;51.074;13.754;2023-05-10T12:42:12;3.70;;;3.40;;
20290;SDS011;10304;51.074;13.754;2023-05-10T12:44:39;5.20;;;3.58;;
20290;SDS011;10304;51.074;13.754;2023-05-10T12:47:06;6.97;;;3.40;;
20290;SDS011;10304;51.074;13.754;2023-05-10T12:49:33;5.88;;;3.80;;
20290;SDS011;10304;51.074;13.754;2023-05-10T12:52:00;4.70;;;3.03;;
20290;SDS011;10304;51.074;13.754;2023-05-10T12:54:27;3.92;;;3.47;;
20290;SDS011;10304;51.074;13.754;2023-05-10T12:56:54;4.60;;;3.70;;
20290;SDS011;10304;51.074;13.754;2023-05-10T12:59:21;5.35;;;3.90;;
20290;SDS011;10304;51.074;13.754;2023-05-10T13:01:49;5.78;;;3.55;;
20290;SDS011;10304;51.074;13.754;2023-05-10T13:04:16;7.20;;;3.63;;
20290;SDS011;10304;51.074;13.754;2023-05-10T13:06:42;5.45;;;3.88;;
20290;SDS011;10304;51.074;13.754;2023-05-10T13:09:09;5.70;;;3.78;;
20290;SDS011;10304;51.074;13.754;2023-05-10T13:11:36;5.22;;;3.65;;
20290;SDS011;10304;51.074;13.754;2023-05-10T13:14:03;4.18;;;3.50;;
20290;SDS011;10304;51.074;13.754;2023-05-10T13:16:30;5.75;;;3.40;;
20290;SDS011;10304;51.074;13.754;2023-05-10T13:18:57;4.18;;;3.63;;
20290;SDS011;10304;51.074;13.754;2023-05-10T13:21:24;5.72;;;3.53;;
20290;SDS011;10304;51.074;13.754;2023-05-10T13:23:51;4.05;;;3.38;;
20290;SDS011;10304;51.074;13.754;2023-05-10T13:26:18;5.03;;;3.35;;
20290;SDS011;10304;51.074;13.754;2023-05-10T13:28:46;5.20;;;3.65;;
20290;SDS011;10304;51.074;13.754;2023-05-10T13:31:12;6.55;;;3.80;;
20290;SDS011;10304;51.074;13.754;2023-05-10T13:33:39;3.67;;;3.30;;
20290;SDS011;10304;51.074;13.754;2023-05-10T13:36:06;4.20;;;3.40;;
20290;SDS011;10304;51.074;13.754;2023-05-10T13:38:33;4.50;;;3.47;;
20290;SDS011;10304;51.074;13.754;2023-05-10T13:41:00;5.43;;;3.60;;
20290;SDS011;10304;51.074;13.754;2023-05-10T13:43:27;5.13;;;3.28;;
20290;SDS011;10304;51.074;13.754;2023-05-10T13:45:55;5.15;;;3.10;;
20290;SDS011;10304;51.074;13.754;2023-05-10T13:48:22;4.50;;;3.65;;
20290;SDS011;10304;51.074;13.754;2023-05-10T13:50:48;4.53;;;3.50;;
20290;SDS011;10304;51.074;13.754;2023-05-10T13:53:16;5.97;;;3.50;;
20290;SDS011;10304;51.074;13.754;2023-05-10T13:55:42;5.20;;;3.40;;
20290;SDS011;10304;51.074;13.754;2023-05-10T13:58:09;5.07;;;3.25;;
20290;SDS011;10304;51.074;13.754;2023-05-10T14:00:36;5.07;;;3.10;;
20290;SDS011;10304;51.074;13.754;2023-05-10T14:03:03;4.75;;;3.08;;
20290;SDS011;10304;51.074;13.754;2023-05-10T14:05:33;3.50;;;3.15;;
20290;SDS011;10304;51.074;13.754;2023-05-10T14:08:01;6.32;;;3.17;;
20290;SDS011;10304;51.074;13.754;2023-05-10T14:10:27;5.38;;;3.30;;
20290;SDS011;10304;51.074;13.754;2023-05-10T14:12:54;4.72;;;3.70;;
20290;SDS011;10304;51.074;13.754;2023-05-10T14:15:21;7.60;;;4.38;;
20290;SDS011;10304;51.074;13.754;2023-05-10T14:17:48;3.50;;;3.20;;
20290;SDS011;10304;51.074;13.754;2023-05-10T14:20:15;7.38;;;3.58;;
20290;SDS011;10304;51.074;13.754;2023-05-10T14:22:42;4.13;;;3.38;;
20290;SDS011;10304;51.074;13.754;2023-05-10T14:25:09;4.07;;;3.10;;
20290;SDS011;10304;51.074;13.754;2023-05-10T14:27:36;4.85;;;3.30;;
20290;SDS011;10304;51.074;13.754;2023-05-10T14:30:03;5.75;;;3.38;;
20290;SDS011;10304;51.074;13.754;2023-05-10T14:32:30;3.40;;;3.10;;
20290;SDS011;10304;51.074;13.754;2023-05-10T14:34:58;3.72;;;2.85;;
20290;SDS011;10304;51.074;13.754;2023-05-10T14:37:25;5.43;;;3.53;;
20290;SDS011;10304;51.074;13.754;2023-05-10T14:39:53;7.00;;;3.10;;
20290;SDS011;10304;51.074;13.754;2023-05-10T14:42:20;4.95;;;3.35;;
20290;SDS011;10304;51.074;13.754;2023-05-10T14:44:47;3.58;;;3.28;;
20290;SDS011;10304;51.074;13.754;2023-05-10T14:47:14;3.70;;;3.38;;
20290;SDS011;10304;51.074;13.754;2023-05-10T14:49:40;6.45;;;3.10;;
20290;SDS011;10304;51.074;13.754;2023-05-10T14:52:07;5.00;;;3.53;;
20290;SDS011;10304;51.074;13.754;2023-05-10T14:54:34;3.70;;;3.35;;
20290;SDS011;10304;51.074;13.754;2023-05-10T14:57:01;4.97;;;3.58;;
20290;SDS011;10304;51.074;13.754;2023-05-10T14:59:29;5.90;;;3.60;;
20290;SDS011;10304;51.074;13.754;2023-05-10T15:01:56;5.22;;;3.38;;
20290;SDS011;10304;51.074;13.754;2023-05-10T15:04:23;5.32;;;3.35;;
20290;SDS011;10304;51.074;13.754;2023-05-10T15:06:53;5.45;;;3.38;;
20290;SDS011;10304;51.074;13.754;2023-05-10T15:09:25;6.78;;;3.72;;
20290;SDS011;10304;51.074;13.754;2023-05-10T15:11:53;4.20;;;3.53;;
20290;SDS011;10304;51.074;13.754;2023-05-10T15:14:21;3.60;;;3.28;;
20290;SDS011;10304;51.074;13.754;2023-05-10T15:16:48;3.78;;;3.20;;
20290;SDS011;10304;51.074;13.754;2023-05-10T15:19:15;3.90;;;3.50;;
20290;SDS011;10304;51.074;13.754;2023-05-10T15:21:42;4.70;;;3.17;;
20290;SDS011;10304;51.074;13.754;2023-05-10T15:24:10;4.85;;;3.50;;
20290;SDS011;10304;51.074;13.754;2023-05-10T15:26:37;3.90;;;3.15;;
20290;SDS011;10304;51.074;13.754;2023-05-10T15:29:04;4.32;;;2.97;;
20290;SDS011;10304;51.074;13.754;2023-05-10T15:31:30;4.32;;;3.30;;